Terminal Aerodrome Forecast
Issued by NWS Charleston, WV

Current Version | Previous Version | Graphics & Text | Print | Product List | Glossary On
Versions: 1 2 3 4 5 6 7 8 9 10 11 12 13 14 15 16 17 18 19 20 21 22 23 24
000
FTUS41 KRLX 230900 AAA
TAFHTS
TAF AMD
KHTS 230905Z 2309/2406 17004KT P6SM VCSH BKN040 OVC080
     FM231400 15006KT P6SM BKN035
     FM240200 14004KT 6SM BR OVC030
     FM240300 15004KT 5SM -SHRA BR SCT025 OVC050=

USA.gov is the U.S. government's official web portal to all federal, state and local government web resources and services.